Time;durP1;ratioP1;P1;durP2;ratioP2;P2;SDS_P1;SDS_P2;PMS_P1;PMS_P2;Temp;Humidity;BMP_temperature;BMP_pressure;BME280_temperature;BME280_humidity;BME280_pressure;Samples;Min_cycle;Max_cycle;Signal;HPM_P1;HPM_P2
2022/06/05 00:01:29;;;;;;;;;;;;;;;18.29;78.02;98980.16;6308985;22;19922;-75
2022/06/05 00:04:18;;;;;;;;;;;;;;;18.22;77.93;98980.03;6309334;22;19987;-74
2022/06/05 00:06:43;;;;;;;;;;;;;;;18.23;77.65;98980.84;6256343;22;19919;-76
2022/06/05 00:09:21;;;;;;;;;;;;;;;18.25;77.71;98984.25;6281605;22;20246;-75
2022/06/05 00:11:53;;;;;;;;;;;;;;;18.30;77.56;98984.53;6256061;22;19973;-75
2022/06/05 00:14:19;;;;;;;;;;;;;;;18.38;77.23;98984.47;6255974;22;19968;-75
2022/06/05 00:16:45;;;;;;;;;;;;;;;18.44;77.30;98979.16;6256170;22;19923;-74
2022/06/05 00:19:10;;;;;;;;;;;;;;;18.48;76.99;98985.06;6307734;22;19926;-75
2022/06/05 00:21:36;;;;;;;;;;;;;;;18.50;76.66;98988.41;6307548;22;20024;-76
2022/06/05 00:24:02;;;;;;;;;;;;;;;18.49;76.83;98985.91;6308578;22;19918;-75
2022/06/05 00:26:28;;;;;;;;;;;;;;;18.56;76.52;98986.84;6281547;22;19930;-75
2022/06/05 00:29:06;;;;;;;;;;;;;;;18.51;76.65;98984.69;6256103;22;19925;-76
2022/06/05 00:31:59;;;;;;;;;;;;;;;18.48;76.23;98990.47;6281297;22;19918;-75
2022/06/05 00:34:24;;;;;;;;;;;;;;;18.37;76.35;98993.59;6273974;22;19923;-76
2022/06/05 00:36:53;;;;;;;;;;;;;;;18.50;76.23;98983.00;6255768;22;19918;-76
2022/06/05 00:39:24;;;;;;;;;;;;;;;18.51;75.63;98981.16;6308252;22;19925;-75
2022/06/05 00:42:02;;;;;;;;;;;;;;;18.45;76.02;98980.84;6280929;22;19919;-76
2022/06/05 00:44:30;;;;;;;;;;;;;;;18.46;75.88;98984.38;6230782;22;19923;-75
2022/06/05 00:46:56;;;;;;;;;;;;;;;18.47;75.90;98982.50;6281237;22;19946;-75
2022/06/05 00:49:23;;;;;;;;;;;;;;;18.49;75.98;98986.72;6281080;22;19919;-75
2022/06/05 00:51:49;;;;;;;;;;;;;;;18.57;75.71;98992.06;6281307;22;20316;-75
2022/06/05 00:54:15;;;;;;;;;;;;;;;18.72;75.44;98997.56;6255516;22;19926;-75
2022/06/05 00:56:41;;;;;;;;;;;;;;;18.60;75.11;98993.56;6281466;22;20339;-75
2022/06/05 00:59:07;;;;;;;;;;;;;;;18.59;75.36;98998.16;6255789;22;19919;-75
2022/06/05 01:01:33;;;;;;;;;;;;;;;18.46;76.08;98995.22;6281326;22;20266;-74
2022/06/05 01:04:03;;;;;;;;;;;;;;;18.42;76.12;98997.44;6281057;22;20005;-74
2022/06/05 01:06:29;;;;;;;;;;;;;;;18.39;75.64;98995.13;6308979;22;19926;-75
2022/06/05 01:08:55;;;;;;;;;;;;;;;18.32;75.85;99004.97;6281321;22;19918;-75
2022/06/05 01:11:28;;;;;;;;;;;;;;;18.21;76.21;99002.69;6281930;22;20317;-76
2022/06/05 01:14:05;;;;;;;;;;;;;;;18.16;75.83;99003.22;6308455;22;19926;-75
2022/06/05 01:16:33;;;;;;;;;;;;;;;18.08;75.87;99013.25;6280885;22;20253;-75
2022/06/05 01:19:29;;;;;;;;;;;;;;;18.12;75.71;99007.28;6280837;22;19926;-74
2022/06/05 01:22:11;;;;;;;;;;;;;;;18.11;74.17;99011.03;6281405;22;19981;-75
2022/06/05 01:24:55;;;;;;;;;;;;;;;18.13;73.97;99002.75;6280974;22;19923;-76
2022/06/05 01:27:27;;;;;;;;;;;;;;;18.18;74.00;99011.16;6308396;22;19999;-75
2022/06/05 01:29:59;;;;;;;;;;;;;;;18.18;73.86;99011.16;6281289;22;19918;-75
2022/06/05 01:32:29;;;;;;;;;;;;;;;18.23;73.72;99014.16;6280909;22;19930;-75
2022/06/05 01:34:57;;;;;;;;;;;;;;;18.36;73.69;99019.00;6229614;22;19919;-75
2022/06/05 01:37:31;;;;;;;;;;;;;;;18.28;73.48;99021.72;6280966;22;19919;-75
2022/06/05 01:40:02;;;;;;;;;;;;;;;18.23;73.68;99021.44;6280708;22;19919;-75
2022/06/05 01:42:31;;;;;;;;;;;;;;;18.29;73.57;99015.31;6281403;22;19919;-75
2022/06/05 01:44:59;;;;;;;;;;;;;;;18.39;73.55;99015.91;6255028;22;19926;-75
2022/06/05 01:47:37;;;;;;;;;;;;;;;18.51;73.43;99028.00;6307958;22;19918;-75
2022/06/05 01:50:09;;;;;;;;;;;;;;;18.42;73.01;99023.66;6230266;22;19941;-75
2022/06/05 01:52:52;;;;;;;;;;;;;;;18.54;73.10;99027.66;6255090;22;20352;-77
2022/06/05 01:55:21;;;;;;;;;;;;;;;18.64;73.16;99036.34;6255030;22;19923;-76
2022/06/05 01:57:48;;;;;;;;;;;;;;;18.57;73.05;99035.38;6255292;22;19922;-76
2022/06/05 02:00:19;;;;;;;;;;;;;;;18.58;73.05;99034.38;6254972;22;19993;-75
2022/06/05 02:03:00;;;;;;;;;;;;;;;18.36;73.18;99041.47;6306268;22;19926;-76
2022/06/05 02:05:37;;;;;;;;;;;;;;;18.40;73.15;99041.97;6307467;22;20469;-75
2022/06/05 02:08:08;;;;;;;;;;;;;;;18.37;73.01;99047.72;6255336;22;19919;-75
2022/06/05 02:10:39;;;;;;;;;;;;;;;18.40;72.97;99047.38;6307631;22;19918;-76
2022/06/05 02:13:06;;;;;;;;;;;;;;;18.46;73.23;99041.22;6229830;22;19939;-76
2022/06/05 02:15:32;;;;;;;;;;;;;;;18.41;72.83;99040.94;6229437;22;19919;-76
2022/06/05 02:17:58;;;;;;;;;;;;;;;18.31;73.43;99048.44;6280450;22;20364;-76
2022/06/05 02:20:24;;;;;;;;;;;;;;;18.18;73.64;99041.75;6280282;22;20381;-76
2022/06/05 02:22:50;;;;;;;;;;;;;;;18.10;73.99;99052.63;6254439;22;19918;-77
2022/06/05 02:25:17;;;;;;;;;;;;;;;18.18;74.09;99047.16;6229645;22;19981;-79
2022/06/05 02:27:43;;;;;;;;;;;;;;;18.35;74.07;99044.34;6254773;22;20002;-77
2022/06/05 02:30:10;;;;;;;;;;;;;;;18.48;73.04;99054.59;6280859;22;20314;-78
2022/06/05 02:32:54;;;;;;;;;;;;;;;18.36;73.01;99054.16;6280508;22;20255;-77
2022/06/05 02:35:43;;;;;;;;;;;;;;;18.33;73.01;99051.81;6229696;22;19919;-78
2022/06/05 02:38:23;;;;;;;;;;;;;;;18.37;73.07;99058.56;6260601;22;19919;-75
2022/06/05 02:40:52;;;;;;;;;;;;;;;18.29;72.81;99059.44;6306387;22;19998;-76
2022/06/05 02:43:24;;;;;;;;;;;;;;;18.33;72.81;99057.22;6254690;22;19972;-76
2022/06/05 02:45:56;;;;;;;;;;;;;;;18.55;72.56;99061.81;6254696;22;19919;-75
2022/06/05 02:48:44;;;;;;;;;;;;;;;18.66;71.68;99063.25;6307495;22;19984;-74
2022/06/05 02:51:14;;;;;;;;;;;;;;;18.50;71.67;99064.19;6212678;22;19925;-75
2022/06/05 02:53:45;;;;;;;;;;;;;;;18.63;71.57;99061.75;6254478;22;19972;-76
2022/06/05 02:56:11;;;;;;;;;;;;;;;18.58;71.57;99064.16;6280277;22;20334;-77
2022/06/05 02:58:36;;;;;;;;;;;;;;;18.80;70.68;99070.59;6280537;22;19965;-76
2022/06/05 03:03:47;;;;;;;;;;;;;;;18.59;69.69;99065.84;6280159;22;19961;-76
2022/06/05 03:06:13;;;;;;;;;;;;;;;18.61;70.11;99066.47;6254974;22;19919;-77
2022/06/05 03:08:38;;;;;;;;;;;;;;;18.88;70.41;99061.53;6307420;22;19926;-78
2022/06/05 03:11:04;;;;;;;;;;;;;;;18.89;68.72;99064.09;6280340;22;19942;-78
2022/06/05 03:13:30;;;;;;;;;;;;;;;18.87;68.59;99070.69;6255065;22;19919;-77
2022/06/05 03:15:55;;;;;;;;;;;;;;;18.84;68.31;99068.34;6280728;22;19968;-75
2022/06/05 03:18:21;;;;;;;;;;;;;;;18.96;68.25;99074.22;6256073;22;20040;-75
2022/06/05 03:20:47;;;;;;;;;;;;;;;18.99;67.69;99068.41;6281862;22;19958;-75
2022/06/05 03:23:13;;;;;;;;;;;;;;;19.13;67.67;99063.00;6256144;22;19926;-76
2022/06/05 03:25:40;;;;;;;;;;;;;;;19.43;67.21;99060.31;6282036;22;19922;-75
2022/06/05 03:28:06;;;;;;;;;;;;;;;19.40;66.60;99066.94;6309390;22;19929;-76
2022/06/05 03:30:31;;;;;;;;;;;;;;;19.32;66.07;99079.75;6231335;22;19926;-74
2022/06/05 03:32:57;;;;;;;;;;;;;;;19.29;66.95;99069.28;6222547;22;19928;-76
2022/06/05 03:35:23;;;;;;;;;;;;;;;19.28;67.03;99071.16;6251639;22;19919;-75
2022/06/05 03:37:49;;;;;;;;;;;;;;;19.28;67.78;99070.31;6201254;22;19919;-76
2022/06/05 03:40:16;;;;;;;;;;;;;;;19.35;67.91;99076.69;6251156;22;20258;-77
2022/06/05 03:42:42;;;;;;;;;;;;;;;19.20;68.46;99086.66;6278828;22;19926;-77
2022/06/05 03:45:15;;;;;;;;;;;;;;;19.12;68.82;99087.59;6251176;22;19951;-76
2022/06/05 03:47:41;;;;;;;;;;;;;;;19.08;68.85;99084.41;6225936;22;19926;-76
2022/06/05 03:50:07;;;;;;;;;;;;;;;19.05;69.34;99087.47;6251063;22;20254;-78
2022/06/05 03:52:33;;;;;;;;;;;;;;;19.11;68.66;99091.34;6225758;22;19919;-75
2022/06/05 03:54:59;;;;;;;;;;;;;;;19.14;68.70;99091.81;6200715;22;20404;-76
2022/06/05 03:57:24;;;;;;;;;;;;;;;19.08;69.26;99103.38;6225695;22;19926;-75
2022/06/05 03:59:50;;;;;;;;;;;;;;;19.08;68.99;99111.50;6251113;22;19926;-76
2022/06/05 04:02:16;;;;;;;;;;;;;;;19.16;68.34;99103.28;6251158;22;19947;-77
2022/06/05 04:04:41;;;;;;;;;;;;;;;19.07;68.30;99115.22;6276569;22;19919;-75
2022/06/05 04:07:07;;;;;;;;;;;;;;;18.98;67.81;99116.31;6250816;22;19937;-78
2022/06/05 04:09:33;;;;;;;;;;;;;;;18.89;68.06;99112.00;6226452;22;20335;-77
2022/06/05 04:11:58;;;;;;;;;;;;;;;18.65;68.89;99121.97;6277988;22;19919;-77
2022/06/05 04:14:24;;;;;;;;;;;;;;;18.53;69.55;99115.25;6276348;22;20322;-76
2022/06/05 04:16:50;;;;;;;;;;;;;;;18.87;70.44;99114.03;6277975;22;19919;-78
2022/06/05 04:19:15;;;;;;;;;;;;;;;19.12;69.12;99111.97;6250760;22;20251;-77
2022/06/05 04:21:44;;;;;;;;;;;;;;;19.03;67.66;99118.47;6277945;22;19919;-79
2022/06/05 04:24:11;;;;;;;;;;;;;;;18.78;68.38;99110.56;6276483;22;20025;-76
2022/06/05 04:26:38;;;;;;;;;;;;;;;18.54;69.52;99114.25;6225257;22;19927;-78
2022/06/05 04:29:04;;;;;;;;;;;;;;;18.56;69.99;99114.91;6276431;22;20262;-75
2022/06/05 04:31:32;;;;;;;;;;;;;;;18.63;70.30;99113.16;6224653;22;19923;-77
2022/06/05 04:34:00;;;;;;;;;;;;;;;18.82;69.05;99116.47;6277451;22;20263;-77
2022/06/05 04:36:26;;;;;;;;;;;;;;;18.97;69.22;99122.75;6200331;22;20239;-77
2022/06/05 04:38:52;;;;;;;;;;;;;;;18.96;68.04;99121.09;6250753;22;19973;-76
2022/06/05 04:41:19;;;;;;;;;;;;;;;18.66;67.79;99123.66;6225303;22;20326;-76
2022/06/05 04:43:45;;;;;;;;;;;;;;;18.48;68.31;99131.22;6225030;22;19926;-77
2022/06/05 04:46:11;;;;;;;;;;;;;;;18.51;69.16;99130.84;6199971;22;19926;-75
2022/06/05 04:48:36;;;;;;;;;;;;;;;18.81;68.17;99129.16;6250275;22;19920;-77
2022/06/05 04:51:03;;;;;;;;;;;;;;;19.16;68.45;99135.81;6199705;22;19951;-77
2022/06/05 04:53:29;;;;;;;;;;;;;;;19.35;66.81;99123.59;6225847;22;19919;-78
2022/06/05 04:55:55;;;;;;;;;;;;;;;19.27;66.54;99139.09;6226287;22;19919;-77
2022/06/05 04:58:20;;;;;;;;;;;;;;;19.29;65.89;99137.88;6251176;22;20304;-79
2022/06/05 05:00:46;;;;;;;;;;;;;;;19.25;66.86;99128.44;6202243;22;19919;-77
2022/06/05 05:03:12;;;;;;;;;;;;;;;19.34;66.68;99143.59;6279049;22;19919;-78
2022/06/05 05:05:37;;;;;;;;;;;;;;;19.62;66.41;99134.88;6254724;22;20010;-80
2022/06/05 05:08:03;;;;;;;;;;;;;;;19.64;64.82;99132.84;6257104;22;19998;-79
2022/06/05 05:10:29;;;;;;;;;;;;;;;19.58;66.04;99141.66;6280881;22;19926;-77
2022/06/05 05:12:55;;;;;;;;;;;;;;;19.67;64.93;99134.31;6278423;22;20753;-79
2022/06/05 05:15:20;;;;;;;;;;;;;;;19.72;64.76;99140.03;6199898;22;20002;-77
2022/06/05 05:17:47;;;;;;;;;;;;;;;19.80;64.10;99134.50;6249699;22;20269;-78
2022/06/05 05:20:13;;;;;;;;;;;;;;;19.63;63.94;99142.84;6226031;22;19919;-77
2022/06/05 05:22:39;;;;;;;;;;;;;;;19.78;64.45;99128.41;6199862;22;19998;-79
2022/06/05 05:25:06;;;;;;;;;;;;;;;20.00;64.14;99132.06;6199971;22;19972;-76
2022/06/05 05:27:32;;;;;;;;;;;;;;;19.84;63.76;99130.41;6224789;22;19976;-79
2022/06/05 05:29:58;;;;;;;;;;;;;;;19.69;64.13;99137.69;6224799;22;19920;-82
2022/06/05 05:32:27;;;;;;;;;;;;;;;19.82;64.54;99135.16;6211096;22;19923;-81
2022/06/05 05:34:52;;;;;;;;;;;;;;;20.02;64.03;99125.44;6250071;22;19923;-81
2022/06/05 05:37:18;;;;;;;;;;;;;;;20.22;63.61;99141.97;6277604;22;19923;-75
2022/06/05 05:42:30;;;;;;;;;;;;;;;20.33;62.72;99136.03;6249692;22;19923;-77
2022/06/05 05:44:56;;;;;;;;;;;;;;;20.43;62.63;99122.19;6224032;22;20258;-76
2022/06/05 05:47:24;;;;;;;;;;;;;;;20.56;62.09;99130.47;6274944;22;20306;-75
2022/06/05 05:49:50;;;;;;;;;;;;;;;20.76;61.56;99127.13;6223318;22;19919;-79
2022/06/05 05:52:16;;;;;;;;;;;;;;;20.97;60.63;99121.69;6249021;22;20006;-76
2022/06/05 05:54:42;;;;;;;;;;;;;;;21.15;60.51;99120.41;6249182;22;19938;-76
2022/06/05 05:57:08;;;;;;;;;;;;;;;21.31;59.29;99114.66;6248864;22;19923;-77
2022/06/05 05:59:34;;;;;;;;;;;;;;;21.37;59.43;99115.81;6223478;22;20335;-77
2022/06/05 06:02:00;;;;;;;;;;;;;;;21.60;59.54;99108.22;6250287;22;20357;-77
2022/06/05 06:04:26;;;;;;;;;;;;;;;21.85;58.84;99115.88;6265869;22;19946;-78
2022/06/05 06:06:53;;;;;;;;;;;;;;;22.13;58.09;99124.00;6227825;22;19951;-76
2022/06/05 06:09:19;;;;;;;;;;;;;;;22.19;56.67;99117.75;6224787;22;20028;-76
2022/06/05 06:11:46;;;;;;;;;;;;;;;22.32;55.75;99116.97;6224405;22;19923;-76
2022/06/05 06:14:12;;;;;;;;;;;;;;;22.65;55.74;99119.81;6249797;22;19926;-75
2022/06/05 06:16:37;;;;;;;;;;;;;;;22.54;54.33;99121.25;6249721;22;20590;-77
2022/06/05 06:19:03;;;;;;;;;;;;;;;22.50;54.20;99125.44;6275246;22;19976;-78
2022/06/05 06:21:29;;;;;;;;;;;;;;;22.53;54.56;99119.56;6224334;22;19965;-79
2022/06/05 06:23:54;;;;;;;;;;;;;;;22.59;53.53;99118.72;6224325;22;19919;-78
2022/06/05 06:26:20;;;;;;;;;;;;;;;22.78;52.20;99111.66;6275152;22;19926;-78
2022/06/05 06:28:46;;;;;;;;;;;;;;;23.08;51.85;99105.84;6224239;22;20298;-76
2022/06/05 06:31:12;;;;;;;;;;;;;;;23.28;51.59;99114.84;6249129;22;19919;-79
2022/06/05 06:33:39;;;;;;;;;;;;;;;23.56;51.26;99108.34;6224258;22;19931;-79
2022/06/05 06:36:06;;;;;;;;;;;;;;;23.76;50.26;99100.97;6224782;22;20282;-76
2022/06/05 06:38:33;;;;;;;;;;;;;;;24.21;49.87;99096.38;6224265;22;20422;-79
2022/06/05 06:40:59;;;;;;;;;;;;;;;24.69;49.38;99093.22;6224170;22;19976;-79
2022/06/05 06:43:25;;;;;;;;;;;;;;;24.71;46.54;99095.72;6250003;22;19926;-78
2022/06/05 06:45:50;;;;;;;;;;;;;;;24.30;47.71;99096.13;6248985;22;19919;-76
2022/06/05 06:48:16;;;;;;;;;;;;;;;23.94;48.36;99101.13;6275179;22;19927;-76
2022/06/05 06:50:42;;;;;;;;;;;;;;;23.35;48.97;99101.22;6251464;22;19950;-76
2022/06/05 06:53:08;;;;;;;;;;;;;;;22.78;49.90;99106.19;6251272;22;19955;-77
2022/06/05 06:55:35;;;;;;;;;;;;;;;22.71;50.45;99100.72;6251665;22;19920;-77
2022/06/05 06:58:01;;;;;;;;;;;;;;;23.12;50.74;99097.03;6278362;22;19942;-79
2022/06/05 07:00:27;;;;;;;;;;;;;;;23.17;50.85;99097.25;6250503;22;20335;-78
2022/06/05 07:02:52;;;;;;;;;;;;;;;23.31;50.42;99106.25;6250748;22;19923;-78
2022/06/05 07:05:18;;;;;;;;;;;;;;;23.31;50.32;99106.25;6276304;22;19930;-80
2022/06/05 07:07:44;;;;;;;;;;;;;;;23.07;50.17;99098.72;6225785;22;20294;-77
2022/06/05 07:10:09;;;;;;;;;;;;;;;23.72;49.08;99103.28;6225745;22;19919;-77
2022/06/05 07:12:36;;;;;;;;;;;;;;;23.97;46.49;99103.44;6251016;22;20358;-77
2022/06/05 07:15:03;;;;;;;;;;;;;;;23.72;47.80;99107.91;6277864;22;19919;-78
2022/06/05 07:17:29;;;;;;;;;;;;;;;22.93;49.35;99104.16;6225030;22;19946;-77
2022/06/05 07:19:54;;;;;;;;;;;;;;;22.36;50.70;99113.63;6275731;22;20358;-77
2022/06/05 07:22:20;;;;;;;;;;;;;;;22.16;51.60;99112.75;6250274;22;19925;-77
2022/06/05 07:24:46;;;;;;;;;;;;;;;22.42;51.08;99109.28;6274894;22;19919;-77
2022/06/05 07:27:11;;;;;;;;;;;;;;;23.02;51.15;99113.81;6249699;22;20020;-78
2022/06/05 07:29:37;;;;;;;;;;;;;;;23.74;49.15;99097.63;6224279;22;19946;-77
2022/06/05 07:32:03;;;;;;;;;;;;;;;24.36;49.37;99109.78;6259869;22;19923;-77
2022/06/05 07:34:29;;;;;;;;;;;;;;;24.43;47.76;99105.16;6276879;22;19919;-79
2022/06/05 07:36:54;;;;;;;;;;;;;;;24.59;47.12;99109.25;6277967;22;19946;-78
2022/06/05 07:39:20;;;;;;;;;;;;;;;25.04;46.65;99106.44;6249525;22;20033;-78
2022/06/05 07:41:46;;;;;;;;;;;;;;;24.79;44.14;99120.09;6249801;22;19926;-78
2022/06/05 07:44:11;;;;;;;;;;;;;;;23.85;45.80;99107.03;6275048;22;20002;-79
2022/06/05 07:46:37;;;;;;;;;;;;;;;23.11;46.19;99116.34;6275169;22;19928;-79
2022/06/05 07:49:03;;;;;;;;;;;;;;;22.86;46.74;99118.78;6300884;22;20309;-78
2022/06/05 07:54:28;;;;;;;;;;;;;;;22.67;48.42;99109.53;6300910;22;19947;-78
2022/06/05 07:56:55;;;;;;;;;;;;;;;23.17;48.42;99110.03;6249554;22;20009;-78
2022/06/05 07:59:20;;;;;;;;;;;;;;;23.90;46.93;99108.06;6275104;22;20687;-78
2022/06/05 08:01:46;;;;;;;;;;;;;;;23.91;43.02;99106.16;6274943;22;20021;-78
2022/06/05 08:04:12;;;;;;;;;;;;;;;24.20;42.99;99105.66;6249716;22;19926;-79
2022/06/05 08:06:38;;;;;;;;;;;;;;;24.29;44.50;99114.41;6274961;22;19930;-78
2022/06/05 08:09:04;;;;;;;;;;;;;;;23.90;45.16;99116.25;6249053;22;19926;-79
2022/06/05 08:11:32;;;;;;;;;;;;;;;23.55;46.02;99120.31;6277675;22;19919;-78
2022/06/05 08:13:58;;;;;;;;;;;;;;;23.13;46.97;99120.53;6300894;22;19923;-78
2022/06/05 08:16:24;;;;;;;;;;;;;;;23.69;46.42;99124.69;6275325;22;20001;-78
2022/06/05 08:18:51;;;;;;;;;;;;;;;24.02;44.86;99119.16;6249410;22;19926;-78
2022/06/05 08:21:21;;;;;;;;;;;;;;;24.34;44.91;99117.34;6300853;22;20008;-77
2022/06/05 08:23:47;;;;;;;;;;;;;;;24.10;44.26;99110.72;6249491;22;19927;-78
2022/06/05 08:26:13;;;;;;;;;;;;;;;24.67;44.54;99116.34;6274845;22;19919;-78
2022/06/05 08:28:38;;;;;;;;;;;;;;;24.83;45.32;99107.66;6275527;22;20255;-78
2022/06/05 08:31:04;;;;;;;;;;;;;;;25.07;45.11;99110.63;6249412;22;19919;-77
2022/06/05 08:33:30;;;;;;;;;;;;;;;25.65;43.87;99102.97;6249681;22;19961;-79
2022/06/05 08:35:56;;;;;;;;;;;;;;;25.34;43.46;99112.09;6249743;22;19926;-78
2022/06/05 08:41:27;;;;;;;;;;;;;;;25.17;42.59;99114.56;6224358;22;19919;-78
2022/06/05 08:44:13;;;;;;;;;;;;;;;25.37;42.08;99113.56;6224213;22;19919;-78
2022/06/05 08:46:41;;;;;;;;;;;;;;;25.22;41.40;99115.81;6248985;22;19942;-78
2022/06/05 08:49:07;;;;;;;;;;;;;;;25.37;42.07;99106.19;6224658;22;20358;-78
2022/06/05 08:51:48;;;;;;;;;;;;;;;26.03;43.42;99112.09;6199146;22;19919;-77
2022/06/05 08:54:13;;;;;;;;;;;;;;;26.40;41.96;99121.06;6224514;22;19996;-78
2022/06/05 08:56:47;;;;;;;;;;;;;;;25.79;43.55;99120.13;6250093;22;19947;-79
2022/06/05 08:59:16;;;;;;;;;;;;;;;25.84;44.26;99120.28;6251018;22;19926;-78
2022/06/05 09:01:45;;;;;;;;;;;;;;;25.85;43.85;99115.66;6250607;22;19999;-77
2022/06/05 09:04:26;;;;;;;;;;;;;;;26.43;43.43;99119.78;6199849;22;19941;-79
2022/06/05 09:06:59;;;;;;;;;;;;;;;27.13;42.57;99111.88;6224410;22;19923;-78
2022/06/05 09:09:34;;;;;;;;;;;;;;;26.94;40.37;99115.72;6199286;22;19923;-77
2022/06/05 09:12:00;;;;;;;;;;;;;;;26.29;40.48;99109.03;6223899;22;19942;-78
2022/06/05 09:14:33;;;;;;;;;;;;;;;26.07;41.20;99114.13;6276499;22;20259;-79
2022/06/05 09:17:02;;;;;;;;;;;;;;;26.11;40.87;99120.00;6224966;22;20339;-78
2022/06/05 09:19:30;;;;;;;;;;;;;;;25.99;40.56;99114.44;6224820;22;20340;-78
2022/06/05 09:22:03;;;;;;;;;;;;;;;25.80;41.15;99116.34;6277011;22;20343;-80
2022/06/05 09:24:58;;;;;;;;;;;;;;;25.93;41.76;99118.09;6199329;22;19926;-78
2022/06/05 09:27:23;;;;;;;;;;;;;;;25.68;41.86;99118.09;6224217;22;20255;-78
2022/06/05 09:30:01;;;;;;;;;;;;;;;26.18;41.76;99112.53;6224491;22;19926;-78
2022/06/05 09:32:29;;;;;;;;;;;;;;;26.78;41.44;99112.59;6217648;22;19923;-78
2022/06/05 09:35:13;;;;;;;;;;;;;;;27.04;39.93;99111.34;6253643;22;20078;-78
2022/06/05 09:37:39;;;;;;;;;;;;;;;27.13;39.46;99106.38;6253951;22;19975;-77
2022/06/05 09:40:14;;;;;;;;;;;;;;;27.21;38.18;99106.03;6253577;22;19919;-79
2022/06/05 09:42:46;;;;;;;;;;;;;;;26.97;37.84;99105.13;6253286;22;19918;-78
2022/06/05 09:45:11;;;;;;;;;;;;;;;26.19;39.24;99105.97;6279024;22;19919;-78
2022/06/05 09:47:44;;;;;;;;;;;;;;;25.83;39.76;99101.34;6255264;22;20119;-79
2022/06/05 09:50:21;;;;;;;;;;;;;;;26.29;39.23;99100.78;6253856;22;19925;-77
2022/06/05 09:52:48;;;;;;;;;;;;;;;27.11;39.05;99106.59;6279241;22;19972;-78
2022/06/05 09:55:19;;;;;;;;;;;;;;;27.58;37.39;99101.16;6227746;22;19919;-79
2022/06/05 10:00:43;;;;;;;;;;;;;;;27.75;36.99;99106.78;6279068;22;19922;-77
2022/06/05 10:03:11;;;;;;;;;;;;;;;27.65;37.72;99105.69;6228060;22;19925;-79
2022/06/05 10:05:40;;;;;;;;;;;;;;;27.86;37.30;99107.00;6253245;22;19918;-79
2022/06/05 10:08:20;;;;;;;;;;;;;;;27.05;37.08;99104.78;6253248;22;19998;-78
2022/06/05 10:10:47;;;;;;;;;;;;;;;26.97;37.64;99105.13;6227947;22;19919;-78
2022/06/05 10:13:19;;;;;;;;;;;;;;;26.95;36.56;99106.41;6253936;22;20364;-79
2022/06/05 10:15:56;;;;;;;;;;;;;;;27.59;38.07;99107.47;6229234;22;19918;-77
2022/06/05 10:18:33;;;;;;;;;;;;;;;28.44;36.00;99111.56;6279484;22;20021;-76
2022/06/05 10:21:07;;;;;;;;;;;;;;;29.10;34.28;99115.56;6253829;22;20251;-77
2022/06/05 10:23:43;;;;;;;;;;;;;;;29.42;33.08;99109.50;6253517;22;19923;-78
2022/06/05 10:26:15;;;;;;;;;;;;;;;29.89;33.25;99109.09;6228272;22;19934;-80
2022/06/05 10:28:41;;;;;;;;;;;;;;;30.10;33.27;99097.25;6253606;22;19973;-76
2022/06/05 10:31:08;;;;;;;;;;;;;;;29.46;32.63;99107.91;6303469;22;20009;-75
2022/06/05 10:33:43;;;;;;;;;;;;;;;29.39;33.04;99105.31;6248035;22;19923;-77
2022/06/05 10:36:18;;;;;;;;;;;;;;;29.93;31.23;99113.00;6223398;22;19927;-78
2022/06/05 10:39:11;;;;;;;;;;;;;;;28.90;31.54;99117.94;6222905;22;20018;-79
2022/06/05 10:41:42;;;;;;;;;;;;;;;29.35;30.65;99093.13;6275102;22;19927;-78
2022/06/05 10:44:20;;;;;;;;;;;;;;;29.18;30.42;99098.63;6197488;22;19925;-79
2022/06/05 10:46:52;;;;;;;;;;;;;;;29.74;30.75;99091.25;6248380;22;20491;-79
2022/06/05 10:49:28;;;;;;;;;;;;;;;31.01;30.38;99093.88;6248991;22;19919;-78
2022/06/05 10:52:05;;;;;;;;;;;;;;;31.15;28.74;99097.06;6224479;22;19919;-82
2022/06/05 10:54:50;;;;;;;;;;;;;;;31.12;29.50;99095.63;6199188;22;19925;-82
2022/06/05 10:57:18;;;;;;;;;;;;;;;31.12;28.68;99090.13;6223156;22;19973;-79
2022/06/05 10:59:53;;;;;;;;;;;;;;;31.57;28.72;99093.53;6273827;22;19950;-78
2022/06/05 11:02:29;;;;;;;;;;;;;;;32.09;28.21;99085.28;6223282;22;19957;-78
2022/06/05 11:05:13;;;;;;;;;;;;;;;30.92;28.71;99095.47;6273692;22;20017;-80
2022/06/05 11:07:54;;;;;;;;;;;;;;;31.48;29.06;99104.22;6222343;22;20254;-78
2022/06/05 11:13:42;;;;;;;;;;;;;;;33.15;27.18;99090.56;6222693;22;20208;-79
2022/06/05 11:16:11;;;;;;;;;;;;;;;33.48;26.66;99100.28;6197967;22;19923;-78
2022/06/05 11:18:43;;;;;;;;;;;;;;;32.11;26.70;99096.06;6247719;22;20347;-78
2022/06/05 11:21:09;;;;;;;;;;;;;;;31.18;27.86;99083.56;6222611;22;19925;-78
2022/06/05 11:23:37;;;;;;;;;;;;;;;30.98;28.68;99088.88;6274832;22;19919;-78
2022/06/05 11:26:06;;;;;;;;;;;;;;;31.99;27.61;99090.75;6196800;22;19965;-79
2022/06/05 11:28:35;;;;;;;;;;;;;;;32.38;26.11;99095.88;6247869;22;19945;-78
2022/06/05 11:31:20;;;;;;;;;;;;;;;32.12;26.09;99092.19;6222157;22;19926;-78
2022/06/05 11:33:53;;;;;;;;;;;;;;;31.70;26.75;99084.75;6247884;22;19945;-78
2022/06/05 11:36:18;;;;;;;;;;;;;;;32.79;26.79;99091.31;6274102;22;20004;-78
2022/06/05 11:39:07;;;;;;;;;;;;;;;33.43;25.23;99101.06;6276817;22;20243;-78
2022/06/05 11:41:38;;;;;;;;;;;;;;;32.74;25.55;99094.09;6222901;22;19942;-79
2022/06/05 11:44:22;;;;;;;;;;;;;;;33.10;25.33;99094.16;6277621;22;19919;-79
2022/06/05 11:46:59;;;;;;;;;;;;;;;33.35;24.98;99096.91;6249316;22;19950;-79
2022/06/05 11:49:49;;;;;;;;;;;;;;;32.49;25.34;99097.59;6199152;22;19969;-79
2022/06/05 11:52:18;;;;;;;;;;;;;;;32.43;26.13;99101.47;6224412;22;19915;-78
2022/06/05 11:54:44;;;;;;;;;;;;;;;33.51;25.17;99100.53;6276317;22;20279;-78
2022/06/05 11:57:15;;;;;;;;;;;;;;;34.60;24.10;99099.09;6224024;22;19965;-78
2022/06/05 11:59:48;;;;;;;;;;;;;;;34.15;24.01;99098.16;6199150;22;19919;-78
2022/06/05 12:02:28;;;;;;;;;;;;;;;32.84;25.33;99098.81;6223933;22;19915;-79
2022/06/05 12:04:59;;;;;;;;;;;;;;;32.47;26.18;99085.16;6249215;22;20404;-80
2022/06/05 12:07:25;;;;;;;;;;;;;;;32.49;26.44;99086.53;6198283;22;19923;-80
2022/06/05 12:09:58;;;;;;;;;;;;;;;33.54;25.17;99090.81;6223887;22;19997;-78
2022/06/05 12:12:31;;;;;;;;;;;;;;;34.19;25.14;99079.84;6249289;22;19915;-77
2022/06/05 12:15:15;;;;;;;;;;;;;;;35.18;24.14;99079.84;6199439;22;19919;-79
2022/06/05 12:17:46;;;;;;;;;;;;;;;35.70;23.02;99075.47;6249065;22;19919;-78
2022/06/05 12:20:11;;;;;;;;;;;;;;;35.80;22.63;99077.28;6248948;22;20240;-78
2022/06/05 12:22:44;;;;;;;;;;;;;;;36.13;22.88;99078.31;6223986;22;19965;-80
2022/06/05 12:25:13;;;;;;;;;;;;;;;37.24;22.17;99077.00;6274738;22;19994;-81
2022/06/05 12:27:43;;;;;;;;;;;;;;;37.03;21.46;99080.16;6250505;22;19930;-79
2022/06/05 12:30:15;;;;;;;;;;;;;;;35.98;22.40;99074.59;6250681;22;19930;-78
2022/06/05 12:32:47;;;;;;;;;;;;;;;36.18;22.45;99064.34;6215207;22;19931;-77
2022/06/05 12:35:20;;;;;;;;;;;;;;;35.78;22.64;99068.44;6225077;22;19925;-79
2022/06/05 12:37:51;;;;;;;;;;;;;;;35.82;22.84;99073.09;6224973;22;19919;-78
2022/06/05 12:40:37;;;;;;;;;;;;;;;34.62;23.75;99072.72;6200403;22;19959;-79
2022/06/05 12:43:03;;;;;;;;;;;;;;;33.51;25.03;99081.16;6250199;22;20314;-78
2022/06/05 12:45:31;;;;;;;;;;;;;;;33.12;25.53;99081.69;6224659;22;19949;-79
2022/06/05 12:47:56;;;;;;;;;;;;;;;33.77;24.96;99089.38;6225123;22;19919;-78
2022/06/05 12:50:41;;;;;;;;;;;;;;;34.60;23.76;99080.47;6224447;22;19919;-77
2022/06/05 12:53:27;;;;;;;;;;;;;;;34.07;24.03;99081.00;6225127;22;19919;-77
2022/06/05 12:55:55;;;;;;;;;;;;;;;33.91;24.49;99073.00;6250287;22;19923;-77
2022/06/05 12:58:27;;;;;;;;;;;;;;;33.98;24.87;99079.94;6275362;22;19919;-78
2022/06/05 13:01:02;;;;;;;;;;;;;;;33.89;24.37;99076.06;6250327;22;19919;-78
2022/06/05 13:03:27;;;;;;;;;;;;;;;33.39;24.61;99063.94;6250310;22;19949;-78
2022/06/05 13:05:59;;;;;;;;;;;;;;;32.77;25.62;99070.56;6250165;22;19965;-77
2022/06/05 13:08:30;;;;;;;;;;;;;;;33.21;25.28;99070.03;6250435;22;19920;-79
2022/06/05 13:11:02;;;;;;;;;;;;;;;33.71;24.99;99071.13;6250338;22;20311;-79
2022/06/05 13:13:48;;;;;;;;;;;;;;;34.27;25.05;99059.84;6224836;22;19919;-79
2022/06/05 13:16:17;;;;;;;;;;;;;;;35.47;24.26;99064.00;6249483;22;20361;-85
2022/06/05 13:18:52;;;;;;;;;;;;;;;35.59;23.42;99057.25;6224353;22;19946;-80